• Join FlightAware (Why Join?)
  • Login
  • US Flag 
06:51AM EDT


 

Airport Tracker/Info


-or-


 

Live Flight TrackerFlight Track Log ✈ N418DR ✈ 08-Sep-2013 ✈ KMYF - KPHX

Flight Track Log - Related Links

Times and Time Zones

All times are in EDT time to prevent confusion due to time zone crossing. See the N418DR flight status page for this flight to view local times or setup timezone preferences in your user account.

Time Position Orientation Groundspeed Altitude Reporting Facility
EDT Latitude Longitude Course Direction KTS MPH feet Rate Location/Type
06:36PM 32.8167 -117.1833 95° East 142 163 1,700  Level Southern California TRACON
06:36PM 32.8244 -117.1958 307° West 130 150 2,000 1,140 Climbing Los Angeles Center
06:37PM 32.8422 -117.1683 52° Northeast 175 201 3,600 1,200 Climbing Los Angeles Center
06:38PM 32.8311 -117.1150 104° East 186 214 4,600 1,200 Climbing Los Angeles Center
06:39PM 32.8258 -117.0497 95° East 196 226 6,100 1,500 Climbing Los Angeles Center
06:40PM 32.8156 -116.9767 99° East 190 219 7,800 1,500 Climbing Los Angeles Center
06:41PM 32.8824 -116.6632 95° East  Level Estimated
06:41PM 32.8069 -116.9150 99° East 188 216 9,300  Level Los Angeles Center
06:42PM 32.8019 -116.8536 96° East 188 216 10,700 1,200 Climbing Los Angeles Center
06:43PM 32.8042 -116.8031 87° East 190 219 11,900 1,200 Climbing Los Angeles Center
06:45PM 32.8031 -116.7258 91° East 195 224 13,300 1,200 Climbing Los Angeles Center
06:46PM 32.8022 -116.6394 91° East 211 243 14,500 1,020 Climbing Los Angeles Center
06:47PM 32.8019 -116.5661 90° East 222 255 15,500 900 Climbing Los Angeles Center
06:48PM 32.8008 -116.4981 91° East 223 257 16,400 720 Climbing Los Angeles Center
06:49PM 32.7986 -116.4078 92° East 231 266 17,100 240 Climbing Los Angeles Center
06:50PM 32.7989 -116.3225 90° East 255 293 17,000  Descending Los Angeles Center
06:51PM 32.7978 -116.2347 91° East 263 303 17,100  Climbing Los Angeles Center
06:52PM 32.7969 -116.1522 91° East 256 295 17,100  Level Los Angeles Center
06:53PM 32.7961 -116.0692 91° East 252 290 17,100  Level Los Angeles Center
06:54PM 32.7956 -115.9872 90° East 250 288 17,100  Level Los Angeles Center
06:55PM 32.7933 -115.8867 91° East 252 290 17,100 60 Level Los Angeles Center
06:56PM 32.7944 -115.8342 89° East 253 291 17,200 360 Climbing Los Angeles Center
06:56PM 32.7925 -115.8036 94° East 253 291 17,500 720 Climbing Los Angeles Center
06:56PM 32.7931 -115.7914 87° East 249 287 17,600 960 Climbing Los Angeles Center
06:57PM 32.7858 -115.7253 97° East 244 281 18,500 960 Climbing Los Angeles Center
06:57PM 32.7856 -115.7150 92° East 237 273 18,600 480 Climbing Los Angeles Center
06:58PM 32.7786 -115.6467 97° East 241 277 19,000 480 Climbing Los Angeles Center
06:58PM 32.7792 -115.6333 87° East 242 278 19,100 60 Climbing Los Angeles Center
06:59PM 32.7728 -115.5625 96° East 251 289 19,100  Level Los Angeles Center
06:59PM 32.7719 -115.5467 94° East 262 302 19,100  Level Los Angeles Center
07:00PM 32.7675 -115.4644 94° East 257 296 19,100  Level Los Angeles Center
07:00PM 32.7672 -115.4606 95° East 257 296 19,100 -120 Level Los Angeles Center
07:01PM 32.7611 -115.3767 95° East 256 295 19,000 -120 Descending Los Angeles Center
07:01PM 32.7603 -115.3675 96° East 256 295 19,000 720 Level Los Angeles Center
07:02PM 32.7539 -115.2883 95° East 250 288 19,800 720 Climbing Los Angeles Center
07:03PM 32.7542 -115.2150 90° East 242 278 20,500 600 Climbing Los Angeles Center
07:04PM 32.7456 -115.1286 97° East 232 267 21,100 480 Climbing Los Angeles Center
07:04PM 32.7483 -115.1383 289° West 233 268 21,000 -120 Descending Los Angeles Center
07:05PM 32.7386 -115.0569 98° East 245 282 21,000 60 Level Los Angeles Center
07:05PM 32.7431 -115.0742 287° West 242 278 21,100  Climbing Los Angeles Center
07:06PM 32.7358 -114.9742 95° East 257 296 21,000  Descending Los Angeles Center
07:06PM 32.7383 -114.9572 80° East 255 293 21,100 60 Climbing Los Angeles Center
07:07PM 32.7389 -114.8900 89° East 257 296 21,100 -120 Level Los Angeles Center
07:07PM 32.7406 -114.8722 84° East 257 296 21,000  Descending Los Angeles Center
07:08PM 32.7408 -114.7983 90° East 261 300 21,100 60 Climbing Los Angeles Center
07:08PM 32.7442 -114.7864 72° East 260 299 21,100  Level Los Angeles Center
07:09PM 32.7419 -114.7144 92° East 262 302 21,100  Level Los Angeles Center
07:09PM 32.7436 -114.6922 85° East 262 302 21,100  Level Los Angeles Center
07:10PM 32.7406 -114.6286 93° East 264 304 21,100  Level Los Angeles Center
07:10PM 32.7400 -114.6136 93° East 263 303 21,100 -120 Level Los Angeles Center
07:11PM 32.7414 -114.5322 89° East 272 313 21,000  Descending Los Angeles Center
07:11PM 32.7444 -114.5089 81° East 265 305 21,100 60 Climbing Los Angeles Center
07:12PM 32.7464 -114.4472 88° East 265 305 21,100  Level Los Angeles Center
07:12PM 32.7500 -114.4214 81° East 266 306 21,100 -720 Level Los Angeles Center
07:13PM 32.7514 -114.3622 88° East 263 303 20,400 -900 Descending Los Angeles Center
07:14PM 32.7539 -114.3447 80° East 264 304 20,200 -840 Descending Los Angeles Center
07:15PM 32.7594 -114.2633 85° East 251 289 19,300 -1,020 Descending Los Angeles Center
07:16PM 32.7661 -114.1750 85° East 244 281 18,200 -1,200 Descending Los Angeles Center
07:17PM 32.7700 -114.0886 87° East 242 278 16,900 -1,020 Descending Los Angeles Center
07:18PM 32.7756 -114.0000 86° East 243 280 15,900 -840 Descending Los Angeles Center
07:19PM 32.7864 -113.9164 81° East 237 273 15,000 -480 Descending Los Angeles Center
07:20PM 32.8225 -113.8525 56° Northeast 237 273 15,000  Level Los Angeles Center
07:21PM 32.8569 -113.7775 61° Northeast 253 291 15,000  Level Los Angeles Center
07:22PM 32.9011 -113.6836 61° Northeast 270 311 15,000  Level Los Angeles Center
07:23PM 32.9367 -113.6069 61° Northeast 266 306 15,000  Level Los Angeles Center
07:24PM 32.9706 -113.5303 62° Northeast 264 304 15,000  Level Los Angeles Center
07:25PM 33.0044 -113.4547 62° Northeast 260 299 15,000  Level Los Angeles Center
07:26PM 33.0403 -113.3786 61° Northeast 263 303 15,000  Level Los Angeles Center
07:27PM 33.0744 -113.3025 62° Northeast 260 299 15,000 -540 Level Los Angeles Center
07:28PM 33.1144 -113.2119 62° Northeast 257 296 14,000 -840 Descending Los Angeles Center
07:29PM 33.1486 -113.1386 61° Northeast 254 292 13,300 -720 Descending Los Angeles Center
07:30PM 33.1869 -113.0517 62° Northeast 247 284 12,400 -840 Descending Albuquerque Center
07:32PM 33.2186 -112.9800 62° Northeast 243 280 11,500 -660 Descending Albuquerque Center
07:33PM 33.2508 -112.9092 61° Northeast 242 278 11,100 -240 Descending Albuquerque Center
07:34PM 33.2819 -112.8369 63° Northeast 243 280 11,100  Level Albuquerque Center
07:35PM 33.2819 -112.7544 90° East 243 280 11,100 -420 Level Albuquerque Center
07:36PM 33.3017 -112.6772 73° East 242 278 10,300 -540 Descending Albuquerque Center
07:37PM 33.3281 -112.5831 71° East 243 280 10,100 -540 Descending Albuquerque Center
07:38PM 33.3486 -112.5053 72° East 247 284 9,200 -960 Descending Albuquerque Center
07:39PM 33.3692 -112.4294 72° East 242 278 8,200 -1,020 Descending Albuquerque Center
07:40PM 33.3892 -112.3553 72° East 236 272 7,200 -960 Descending Albuquerque Center
07:41PM 33.4081 -112.2808 73° East 235 270 6,300 -840 Descending Albuquerque Center
07:42PM 33.4219 -112.2208 74° East 183 211 5,600 -960 Descending Albuquerque Center
07:43PM 33.4314 -112.1761 76° East 142 163 4,400 -1,140 Descending Albuquerque Center
07:44PM 33.4383 -112.1317 79° East 138 159 3,300 -1,080 Descending Albuquerque Center
07:45PM 33.4411 -112.0889 86° East 130 150 2,300 -960 Descending Albuquerque Center
07:46PM 33.4408 -112.0392 90° East 128 147 1,400 -600 Descending Albuquerque Center
07:47PM 33.4394 -112.0044 93° East 123 142 1,200 -240 Descending Albuquerque Center